Time;durP1;ratioP1;P1;durP2;ratioP2;P2;SDS_P1;SDS_P2;PMS_P1;PMS_P2;Temp;Humidity;BMP_temperature;BMP_pressure;BME280_temperature;BME280_humidity;BME280_pressure;Samples;Min_cycle;Max_cycle;Signal;HPM_P1;HPM_P2
2021/09/21 00:02:17;;;;;;;8.30;4.60;;;;;;;10.17;100.00;101638.25;5040211;28;20219;-75
2021/09/21 00:04:43;;;;;;;6.87;4.47;;;;;;;10.15;100.00;101639.97;5044645;28;20210;-74
2021/09/21 00:07:10;;;;;;;6.90;4.17;;;;;;;10.15;100.00;101646.09;5040664;28;20197;-74
2021/09/21 00:09:36;;;;;;;8.53;4.20;;;;;;;10.13;100.00;101652.16;5046507;28;20612;-74
2021/09/21 00:12:03;;;;;;;7.60;4.80;;;;;;;10.15;100.00;101647.81;5040296;28;20203;-75
2021/09/21 00:14:29;;;;;;;6.37;4.47;;;;;;;10.10;100.00;101649.59;5046407;28;20207;-75
2021/09/21 00:16:58;;;;;;;5.97;4.47;;;;;;;10.11;100.00;101653.94;5040509;28;20212;-74
2021/09/21 00:19:24;;;;;;;6.03;4.77;;;;;;;10.13;100.00;101659.97;5045515;28;20251;-74
2021/09/21 00:21:51;;;;;;;5.57;4.43;;;;;;;10.12;100.00;101659.13;5039527;28;20219;-74
2021/09/21 00:24:17;;;;;;;6.30;4.40;;;;;;;10.09;100.00;101655.69;5044009;28;20214;-75
2021/09/21 00:26:44;;;;;;;5.97;4.30;;;;;;;10.08;100.00;101661.75;5041565;28;20210;-74
2021/09/21 00:29:10;;;;;;;6.23;4.47;;;;;;;10.07;100.00;101662.66;5042034;28;20224;-74
2021/09/21 00:31:38;;;;;;;7.47;4.30;;;;;;;10.07;100.00;101654.84;5026557;28;20188;-74
2021/09/21 00:34:10;;;;;;;7.67;4.43;;;;;;;10.08;100.00;101657.44;5040513;28;20240;-74
2021/09/21 00:36:37;;;;;;;6.37;4.30;;;;;;;10.03;100.00;101662.66;5044277;28;20203;-74
2021/09/21 00:39:05;;;;;;;5.10;4.20;;;;;;;10.02;100.00;101650.50;5039908;28;20233;-74
2021/09/21 00:41:32;;;;;;;5.90;4.23;;;;;;;10.08;100.00;101653.94;5044398;28;20218;-74
2021/09/21 00:43:58;;;;;;;6.57;4.20;;;;;;;10.08;100.00;101652.22;5041823;28;20811;-74
2021/09/21 00:46:24;;;;;;;6.87;4.67;;;;;;;10.04;100.00;101654.00;5044278;28;20215;-74
2021/09/21 00:48:51;;;;;;;5.93;4.37;;;;;;;10.07;100.00;101652.22;5038733;28;20227;-74
2021/09/21 00:51:20;;;;;;;6.33;4.13;;;;;;;10.07;100.00;101652.22;5046165;28;20198;-74
2021/09/21 00:53:47;;;;;;;5.63;4.13;;;;;;;10.12;100.00;101664.34;5040592;28;20235;-73
2021/09/21 00:56:14;;;;;;;6.03;4.57;;;;;;;10.06;100.00;101667.00;5042994;28;20216;-74
2021/09/21 00:58:40;;;;;;;7.43;4.83;;;;;;;10.07;100.00;101663.50;5043022;28;20226;-74
2021/09/21 01:01:07;;;;;;;6.40;5.37;;;;;;;10.05;100.00;101660.91;5042872;28;20214;-74
2021/09/21 01:03:34;;;;;;;4.57;4.03;;;;;;;10.08;100.00;101659.16;5042125;28;20203;-73
2021/09/21 01:06:00;;;;;;;7.27;4.80;;;;;;;10.10;100.00;101660.03;5042152;28;20215;-75
2021/09/21 01:08:29;;;;;;;4.70;4.10;;;;;;;10.10;100.00;101653.06;5044127;28;20198;-74
2021/09/21 01:10:55;;;;;;;6.47;4.67;;;;;;;10.04;100.00;101663.53;5040317;28;20203;-74
2021/09/21 01:13:22;;;;;;;5.90;3.97;;;;;;;10.01;100.00;101653.16;5043132;28;20195;-74
2021/09/21 01:15:48;;;;;;;7.53;4.40;;;;;;;10.07;100.00;101655.69;5039271;28;20679;-74
2021/09/21 01:18:14;;;;;;;5.87;4.60;;;;;;;10.01;100.00;101648.78;5044820;28;20775;-74
2021/09/21 01:20:41;;;;;;;7.50;4.10;;;;;;;10.00;100.00;101651.41;5040857;28;20199;-75
2021/09/21 01:23:09;;;;;;;6.00;4.73;;;;;;;9.95;100.00;101647.97;5042667;28;20219;-74
2021/09/21 01:25:35;;;;;;;6.97;4.20;;;;;;;9.93;100.00;101645.38;5038094;28;20222;-74
2021/09/21 01:28:01;;;;;;;6.10;4.20;;;;;;;9.92;100.00;101651.47;5045278;28;20214;-74
2021/09/21 01:30:28;;;;;;;7.00;4.53;;;;;;;9.93;100.00;101650.56;5040970;28;20219;-73
2021/09/21 01:32:55;;;;;;;6.93;4.80;;;;;;;9.91;100.00;101647.13;5041200;28;20581;-74
2021/09/21 01:35:21;;;;;;;9.30;4.70;;;;;;;9.97;100.00;101654.91;5037591;28;20204;-74
2021/09/21 01:37:51;;;;;;;6.20;4.93;;;;;;;9.94;100.00;101643.66;5041904;28;20206;-74
2021/09/21 01:40:19;;;;;;;7.33;4.60;;;;;;;9.88;100.00;101648.88;5041582;28;20231;-74
2021/09/21 01:42:47;;;;;;;7.00;4.40;;;;;;;9.84;100.00;101648.91;5039033;28;20223;-75
2021/09/21 01:45:15;;;;;;;8.57;4.23;;;;;;;9.85;100.00;101640.22;5043609;28;20206;-72
2021/09/21 01:47:44;;;;;;;5.63;4.37;;;;;;;9.93;100.00;101640.16;5038453;28;20203;-72
2021/09/21 01:50:21;;;;;;;7.50;4.67;;;;;;;9.90;100.00;101632.34;5041309;28;20239;-72
2021/09/21 01:52:52;;;;;;;7.73;5.03;;;;;;;9.89;100.00;101629.78;5039394;28;20607;-72
2021/09/21 02:00:47;;;;;;;6.73;4.80;;;;;;;9.86;100.00;101646.28;5009570;28;20597;-72
2021/09/21 02:03:14;;;;;;;8.43;4.70;;;;;;;9.85;100.00;101641.97;5038666;28;20226;-72
2021/09/21 02:05:40;;;;;;;9.23;4.90;;;;;;;9.86;100.00;101641.09;5041683;28;20211;-72
2021/09/21 02:08:07;;;;;;;6.63;4.13;;;;;;;9.93;100.00;101642.75;5039934;28;20203;-72
2021/09/21 02:10:34;;;;;;;6.57;4.90;;;;;;;9.85;100.00;101647.19;5035778;28;20230;-72
2021/09/21 02:13:01;;;;;;;5.63;4.30;;;;;;;9.84;100.00;101646.28;5040919;28;20206;-72
2021/09/21 02:15:31;;;;;;;7.87;5.10;;;;;;;9.83;100.00;101643.69;5039809;28;20211;-71
2021/09/21 02:17:59;;;;;;;5.30;4.37;;;;;;;9.81;100.00;101641.09;5040822;28;20581;-72
2021/09/21 02:20:25;;;;;;;7.33;4.50;;;;;;;9.84;100.00;101646.28;5040376;28;20272;-72
2021/09/21 02:22:51;;;;;;;6.37;5.10;;;;;;;9.77;100.00;101648.97;5038636;28;20895;-72
2021/09/21 02:25:18;;;;;;;6.07;4.73;;;;;;;9.79;100.00;101650.66;5041942;28;20191;-72
2021/09/21 02:27:45;;;;;;;5.23;4.37;;;;;;;9.82;100.00;101648.06;5042029;28;20669;-72
2021/09/21 02:30:12;;;;;;;6.63;4.37;;;;;;;9.77;100.00;101648.97;5038258;28;20823;-72
2021/09/21 02:32:39;;;;;;;9.13;4.47;;;;;;;9.75;100.00;101654.19;5041216;28;20198;-72
2021/09/21 02:35:07;;;;;;;9.00;4.37;;;;;;;9.75;100.00;101653.31;5040517;28;20912;-72
2021/09/21 02:37:33;;;;;;;5.77;4.47;;;;;;;9.73;100.00;101650.72;5037812;28;20203;-72
2021/09/21 02:40:00;;;;;;;6.27;4.47;;;;;;;9.77;100.00;101648.97;5040453;28;20227;-72
2021/09/21 02:42:26;;;;;;;6.33;4.37;;;;;;;9.72;100.00;101655.94;5040759;28;20237;-72
2021/09/21 02:44:54;;;;;;;6.53;4.63;;;;;;;9.71;100.00;101659.41;5042197;28;20195;-71
2021/09/21 02:47:20;;;;;;;7.37;4.43;;;;;;;9.76;100.00;101660.25;5038662;28;20209;-72
2021/09/21 02:49:47;;;;;;;5.87;4.77;;;;;;;9.70;100.00;101663.75;5042410;28;20227;-72
2021/09/21 02:52:13;;;;;;;7.00;4.63;;;;;;;9.74;100.00;101664.59;5036922;28;20279;-72
2021/09/21 02:54:39;;;;;;;8.03;4.77;;;;;;;9.74;100.00;101659.38;5041734;28;20211;-72
2021/09/21 02:57:06;;;;;;;5.67;4.57;;;;;;;9.77;100.00;101664.59;5037655;28;20207;-72
2021/09/21 02:59:32;;;;;;;6.17;4.57;;;;;;;9.70;100.00;101657.69;5041904;28;20223;-72
2021/09/21 03:02:00;;;;;;;5.83;4.33;;;;;;;9.75;100.00;101663.75;5036768;28;20207;-72
2021/09/21 03:04:28;;;;;;;7.40;5.03;;;;;;;9.70;100.00;101663.75;5040075;28;20321;-72
2021/09/21 03:07:02;;;;;;;6.30;4.60;;;;;;;9.74;100.00;101664.59;5038146;28;20207;-72
2021/09/21 03:09:47;;;;;;;6.83;4.70;;;;;;;9.68;100.00;101662.03;5038629;28;20226;-72
2021/09/21 03:12:21;;;;;;;6.57;4.83;;;;;;;9.68;100.00;101667.25;5043573;28;20207;-71
2021/09/21 03:17:33;;;;;;;6.40;4.53;;;;;;;9.68;100.00;101670.72;5041924;28;20207;-72
2021/09/21 03:20:01;;;;;;;5.07;4.50;;;;;;;9.64;100.00;101669.88;5038176;28;20589;-71
2021/09/21 03:22:29;;;;;;;7.23;4.60;;;;;;;9.68;100.00;101673.31;5040456;28;20603;-72
2021/09/21 03:24:56;;;;;;;7.33;4.37;;;;;;;9.66;100.00;101675.94;5034818;28;20203;-72
2021/09/21 03:27:24;;;;;;;6.53;4.70;;;;;;;9.74;100.00;101675.03;5042361;28;20922;-72
2021/09/21 03:29:50;;;;;;;7.20;4.90;;;;;;;9.69;100.00;101674.19;5041905;28;20214;-71
2021/09/21 03:32:16;;;;;;;6.23;4.80;;;;;;;9.78;100.00;101679.31;5040718;28;20208;-72
2021/09/21 03:34:44;;;;;;;6.30;4.47;;;;;;;9.76;100.00;101683.69;5041776;28;20696;-72
2021/09/21 03:37:11;;;;;;;5.10;4.10;;;;;;;9.75;100.00;101675.00;5037729;28;20195;-71
2021/09/21 03:39:38;;;;;;;6.17;4.77;;;;;;;9.70;100.00;101671.56;5041642;28;20223;-72
2021/09/21 03:42:05;;;;;;;6.07;4.83;;;;;;;9.71;100.00;101682.84;5037538;28;20219;-72
2021/09/21 03:44:31;;;;;;;5.67;4.53;;;;;;;9.66;100.00;101681.13;5044994;28;20215;-72
2021/09/21 03:46:58;;;;;;;7.93;4.50;;;;;;;9.69;100.00;101684.59;5038726;28;20203;-72
2021/09/21 03:49:24;;;;;;;6.97;4.53;;;;;;;9.62;100.00;101692.44;5042657;28;20226;-72
2021/09/21 03:51:52;;;;;;;5.77;4.67;;;;;;;9.64;100.00;101685.50;5037121;28;20206;-72
2021/09/21 03:54:18;;;;;;;6.60;4.23;;;;;;;9.73;100.00;101694.16;5041936;28;20210;-72
2021/09/21 03:56:44;;;;;;;7.30;4.80;;;;;;;9.74;100.00;101690.66;5039360;28;20207;-72
2021/09/21 03:59:11;;;;;;;7.10;4.30;;;;;;;9.70;100.00;101700.22;5040988;28;20223;-72
2021/09/21 04:01:38;;;;;;;5.10;3.97;;;;;;;9.72;100.00;101702.81;5039378;28;20203;-71
2021/09/21 04:04:04;;;;;;;6.83;4.30;;;;;;;9.64;100.00;101714.13;5038237;28;20628;-72
2021/09/21 04:06:32;;;;;;;8.13;4.70;;;;;;;9.74;100.00;101711.47;5045026;28;20195;-72
2021/09/21 04:08:59;;;;;;;5.20;3.90;;;;;;;9.69;100.00;101710.63;5042099;28;20320;-72
2021/09/21 04:11:26;;;;;;;5.17;4.10;;;;;;;9.70;100.00;101709.78;5042859;28;20195;-72
2021/09/21 04:13:53;;;;;;;6.87;4.23;;;;;;;9.76;100.00;101701.91;5040688;28;20200;-72
2021/09/21 04:16:20;;;;;;;6.93;4.50;;;;;;;9.73;100.00;101702.81;5044163;28;20209;-71
2021/09/21 04:18:47;;;;;;;6.23;4.27;;;;;;;9.62;100.00;101708.06;5041272;28;20233;-71
2021/09/21 04:21:13;;;;;;;5.17;4.00;;;;;;;9.59;100.00;101702.88;5046092;28;20203;-72
2021/09/21 04:23:40;;;;;;;7.47;4.67;;;;;;;9.57;100.00;101707.22;5039266;28;20223;-72
2021/09/21 04:26:08;;;;;;;7.70;4.57;;;;;;;9.56;100.00;101708.09;5041824;28;20207;-72
2021/09/21 04:28:36;;;;;;;5.90;4.60;;;;;;;9.61;100.00;101711.53;5038000;28;20215;-71
2021/09/21 04:31:09;;;;;;;6.10;3.87;;;;;;;9.63;100.00;101707.19;5038363;28;20218;-72
2021/09/21 04:33:37;;;;;;;10.77;4.47;;;;;;;9.60;100.00;101708.94;5040891;28;20783;-72
2021/09/21 04:36:04;;;;;;;4.77;3.87;;;;;;;9.64;100.00;101713.28;5036434;28;20207;-72
2021/09/21 04:38:31;;;;;;;8.07;4.63;;;;;;;9.61;100.00;101718.50;5041571;28;20581;-72
2021/09/21 04:40:57;;;;;;;9.13;4.73;;;;;;;9.57;100.00;101712.44;5038926;28;20210;-72
2021/09/21 04:43:25;;;;;;;5.13;3.67;;;;;;;9.58;100.00;101713.28;5040659;28;20211;-72
2021/09/21 04:45:52;;;;;;;7.50;4.03;;;;;;;9.56;100.00;101715.91;5034231;28;20207;-72
2021/09/21 04:48:19;;;;;;;5.73;3.90;;;;;;;9.58;100.00;101719.34;5039673;28;20344;-72
2021/09/21 04:50:45;;;;;;;6.57;4.23;;;;;;;9.62;100.00;101712.41;5040014;28;20195;-71
2021/09/21 04:53:11;;;;;;;5.20;4.33;;;;;;;9.59;100.00;101710.69;5039843;28;20199;-72
2021/09/21 04:55:38;;;;;;;5.27;4.07;;;;;;;9.64;100.00;101719.34;5038810;28;20199;-72
2021/09/21 04:58:04;;;;;;;6.13;4.10;;;;;;;9.60;100.00;101711.53;5040593;28;20204;-72
2021/09/21 05:00:32;;;;;;;7.67;4.70;;;;;;;9.66;100.00;101712.38;5037591;28;20226;-72
2021/09/21 05:02:58;;;;;;;8.67;4.10;;;;;;;9.68;100.00;101714.13;5035476;28;20223;-72
2021/09/21 05:05:25;;;;;;;8.40;4.40;;;;;;;9.64;100.00;101719.34;5038558;28;20195;-72
2021/09/21 05:07:51;;;;;;;11.77;4.97;;;;;;;9.63;100.00;101719.34;5035031;28;20204;-72
2021/09/21 05:10:18;;;;;;;11.83;5.23;;;;;;;9.60;100.00;101720.25;5040761;28;20215;-72
2021/09/21 05:12:45;;;;;;;15.27;4.63;;;;;;;9.64;100.00;101718.50;5038062;28;20219;-71
2021/09/21 05:15:12;;;;;;;6.70;4.40;;;;;;;9.66;100.00;101724.56;5040556;28;20203;-71
2021/09/21 05:17:39;;;;;;;10.00;4.43;;;;;;;9.69;100.00;101731.47;5038156;28;20203;-72
2021/09/21 05:20:08;;;;;;;6.33;4.53;;;;;;;9.75;100.00;101734.06;5042931;28;20316;-72
2021/09/21 05:22:34;;;;;;;6.40;4.07;;;;;;;9.76;100.00;101738.38;5038226;28;20226;-72
2021/09/21 05:25:00;;;;;;;8.80;4.80;;;;;;;9.75;100.00;101734.91;5039508;28;20211;-71
2021/09/21 05:27:27;;;;;;;5.83;4.30;;;;;;;9.74;100.00;101742.72;5040564;28;20204;-72
2021/09/21 05:29:53;;;;;;;8.30;4.17;;;;;;;9.76;100.00;101751.41;5042434;28;20684;-72
2021/09/21 05:32:19;;;;;;;7.73;4.63;;;;;;;9.78;100.00;101752.25;5041335;28;20200;-72
2021/09/21 05:34:47;;;;;;;7.03;4.63;;;;;;;9.79;100.00;101754.84;5046208;28;20707;-71
2021/09/21 05:37:14;;;;;;;5.53;4.27;;;;;;;9.79;100.00;101761.81;5038766;28;20688;-71
2021/09/21 05:39:40;;;;;;;9.20;4.10;;;;;;;9.79;100.00;101759.19;5045907;28;20223;-72
2021/09/21 05:42:06;;;;;;;7.03;4.70;;;;;;;9.81;100.00;101754.84;5045049;28;20214;-72
2021/09/21 05:44:33;;;;;;;7.17;4.57;;;;;;;9.84;100.00;101750.50;5038241;28;20219;-72
2021/09/21 05:46:59;;;;;;;8.03;4.90;;;;;;;9.86;100.00;101751.34;5043754;28;20192;-72
2021/09/21 05:49:25;;;;;;;5.90;4.77;;;;;;;9.84;100.00;101758.31;5037077;28;20653;-72
2021/09/21 05:51:53;;;;;;;7.73;4.20;;;;;;;9.88;100.00;101751.34;5040916;28;20673;-72
2021/09/21 05:54:19;;;;;;;6.93;4.37;;;;;;;9.95;100.00;101760.84;5037900;28;20195;-72
2021/09/21 05:56:46;;;;;;;7.90;4.40;;;;;;;9.98;100.00;101768.66;5042324;28;20199;-72
2021/09/21 05:59:12;;;;;;;6.60;4.43;;;;;;;10.00;100.00;101772.13;5035773;28;20231;-72
2021/09/21 06:01:38;;;;;;;8.17;4.80;;;;;;;10.05;100.00;101785.97;5039175;28;20220;-72
2021/09/21 06:04:05;;;;;;;6.20;4.63;;;;;;;10.05;100.00;101777.31;5037773;28;20226;-72
2021/09/21 06:06:31;;;;;;;6.97;4.50;;;;;;;10.04;100.00;101788.59;5043710;28;20211;-71
2021/09/21 06:08:59;;;;;;;8.23;4.53;;;;;;;10.13;100.00;101790.28;5038756;28;20211;-72
2021/09/21 06:11:32;;;;;;;6.63;4.50;;;;;;;10.16;100.00;101796.34;5042494;28;20833;-72
2021/09/21 06:13:59;;;;;;;6.47;4.33;;;;;;;10.22;100.00;101800.69;5039005;28;20195;-72
2021/09/21 06:16:25;;;;;;;8.27;4.77;;;;;;;10.22;100.00;101809.34;5041021;28;20256;-72
2021/09/21 06:18:52;;;;;;;6.87;4.23;;;;;;;10.22;100.00;101798.94;5025098;28;20215;-72
2021/09/21 06:21:18;;;;;;;7.97;4.60;;;;;;;10.29;100.00;101804.97;5039781;28;20210;-71
2021/09/21 06:23:45;;;;;;;6.63;4.63;;;;;;;10.31;100.00;101798.03;5047850;28;20222;-72
2021/09/21 06:26:12;;;;;;;6.87;4.83;;;;;;;10.28;100.00;101807.59;5038397;28;20203;-72
2021/09/21 06:28:39;;;;;;;6.87;4.83;;;;;;;10.34;100.00;101815.38;5042852;28;20231;-72
2021/09/21 06:31:05;;;;;;;7.77;4.73;;;;;;;10.41;100.00;101809.25;5039698;28;20309;-72
2021/09/21 06:33:32;;;;;;;6.73;5.30;;;;;;;10.46;100.00;101819.66;5045834;28;20210;-72
2021/09/21 06:35:58;;;;;;;5.43;4.20;;;;;;;10.49;100.00;101815.28;5036752;28;20199;-72
2021/09/21 06:38:24;;;;;;;6.33;4.87;;;;;;;10.54;100.00;101815.28;5042103;28;20211;-72
2021/09/21 06:40:51;;;;;;;6.40;4.73;;;;;;;10.60;100.00;101818.69;5041348;28;20195;-72
2021/09/21 06:43:19;;;;;;;7.57;5.10;;;;;;;10.68;100.00;101820.41;5041942;28;20228;-71
2021/09/21 06:45:45;;;;;;;6.73;4.87;;;;;;;10.74;100.00;101815.97;5041524;28;20203;-72
2021/09/21 06:48:12;;;;;;;7.70;5.00;;;;;;;10.76;100.00;101823.78;5039624;28;20204;-72
2021/09/21 06:50:38;;;;;;;6.67;4.47;;;;;;;10.85;100.00;101815.03;5041657;28;20198;-72
2021/09/21 06:53:05;;;;;;;6.17;4.93;;;;;;;10.92;100.00;101821.91;5042104;28;20786;-72
2021/09/21 06:55:31;;;;;;;7.70;5.40;;;;;;;10.97;100.00;101813.16;5048526;28;20204;-72
2021/09/21 06:57:58;;;;;;;8.83;5.60;;;;;;;11.08;100.00;101810.50;5038765;28;20202;-72
2021/09/21 07:00:25;;;;;;;7.53;5.27;;;;;;;11.08;100.00;101827.88;5042861;28;20222;-72
2021/09/21 07:02:53;;;;;;;6.03;4.80;;;;;;;11.16;100.00;101824.31;5036859;28;20782;-72
2021/09/21 07:05:20;;;;;;;5.67;4.67;;;;;;;11.20;100.00;101824.28;5048637;28;21064;-72
2021/09/21 07:07:47;;;;;;;6.37;4.77;;;;;;;11.26;100.00;101832.06;5037977;28;20207;-71
2021/09/21 07:10:15;;;;;;;6.30;5.03;;;;;;;11.32;100.00;101838.06;5036754;28;20236;-72
2021/09/21 07:12:43;;;;;;;5.77;4.40;;;;;;;11.40;100.00;101839.75;5037945;28;20210;-72
2021/09/21 07:15:11;;;;;;;8.10;5.33;;;;;;;11.46;100.00;101844.91;5041186;28;20273;-71
2021/09/21 07:17:39;;;;;;;8.60;5.00;;;;;;;11.62;100.00;101841.25;5038332;28;20206;-72
2021/09/21 07:20:06;;;;;;;6.93;4.77;;;;;;;11.68;100.00;101837.69;5041027;28;20239;-72
2021/09/21 07:22:32;;;;;;;6.40;4.97;;;;;;;11.69;100.00;101837.69;5040830;28;20206;-72
2021/09/21 07:24:59;;;;;;;6.80;4.70;;;;;;;11.79;100.00;101846.28;5037699;28;20222;-72
2021/09/21 07:27:26;;;;;;;6.40;4.80;;;;;;;11.80;100.00;101849.75;5041651;28;20218;-72
2021/09/21 07:29:52;;;;;;;5.93;4.50;;;;;;;11.83;100.00;101853.19;5040246;28;20235;-72
2021/09/21 07:32:18;;;;;;;6.97;4.83;;;;;;;11.89;100.00;101845.31;5041702;28;20204;-72
2021/09/21 07:34:46;;;;;;;6.73;4.90;;;;;;;11.99;100.00;101861.75;5038736;28;20691;-72
2021/09/21 07:37:13;;;;;;;7.87;4.80;;;;;;;12.10;100.00;101859.00;5048824;28;20205;-71
2021/09/21 07:39:39;;;;;;;5.87;4.23;;;;;;;12.12;100.00;101863.34;5040990;28;20232;-72
2021/09/21 07:42:06;;;;;;;7.70;4.67;;;;;;;12.19;100.00;101863.25;5045024;28;20203;-72
2021/09/21 07:44:33;;;;;;;9.47;5.03;;;;;;;12.32;100.00;101865.69;5041897;28;20230;-72
2021/09/21 07:46:59;;;;;;;7.20;5.10;;;;;;;12.40;100.00;101869.94;5044614;28;20203;-72
2021/09/21 07:49:26;;;;;;;7.10;4.80;;;;;;;12.49;100.00;101880.28;5044467;28;20222;-72
2021/09/21 07:51:53;;;;;;;6.40;4.60;;;;;;;12.53;100.00;101887.19;5044538;28;20215;-71
2021/09/21 07:54:20;;;;;;;10.73;5.23;;;;;;;12.58;100.00;101890.63;5048659;28;20193;-72
2021/09/21 07:56:46;;;;;;;12.57;6.10;;;;;;;12.72;100.00;101894.78;5045910;28;20215;-72
2021/09/21 07:59:13;;;;;;;10.77;6.53;;;;;;;12.86;100.00;101892.84;5047113;28;20698;-72
2021/09/21 08:01:40;;;;;;;7.67;5.00;;;;;;;12.93;99.63;101897.09;5042574;28;20616;-72
2021/09/21 08:04:07;;;;;;;7.17;4.50;;;;;;;13.03;97.93;101901.28;5050907;28;20216;-72
2021/09/21 08:06:34;;;;;;;8.00;4.30;;;;;;;13.10;97.55;101906.41;5043068;28;20234;-72
2021/09/21 08:09:02;;;;;;;6.10;4.27;;;;;;;13.25;98.85;101900.94;5050505;28;20229;-72
2021/09/21 08:11:28;;;;;;;8.60;4.50;;;;;;;13.33;98.07;101908.69;5041951;28;20577;-72
2021/09/21 08:13:55;;;;;;;6.00;4.77;;;;;;;13.50;96.99;101900.53;5049149;28;20203;-72
2021/09/21 08:16:21;;;;;;;6.30;4.50;;;;;;;13.73;97.10;101902.72;5042175;28;20208;-72
2021/09/21 08:18:47;;;;;;;6.27;4.60;;;;;;;13.87;93.90;101913.81;5046690;28;20223;-72
2021/09/21 08:21:18;;;;;;;4.77;4.20;;;;;;;13.96;91.20;101915.38;5046011;28;20202;-72
2021/09/21 08:24:34;;;;;;;4.00;3.60;;;;;;;14.05;91.00;101912.56;5044941;28;20215;-72
2021/09/21 08:27:28;;;;;;;6.13;4.30;;;;;;;14.09;91.73;101902.88;4982877;28;20377;-72
2021/09/21 08:33:41;;;;;;;6.33;4.20;;;;;;;13.96;92.66;101910.13;5036828;28;20213;-72
2021/09/21 08:36:08;;;;;;;4.80;3.77;;;;;;;13.95;89.63;101914.53;5046005;28;20202;-72
2021/09/21 08:38:35;;;;;;;5.90;4.23;;;;;;;14.01;89.74;101921.41;5041460;28;20323;-72
2021/09/21 08:41:02;;;;;;;7.90;4.30;;;;;;;14.12;91.79;101916.78;5051715;28;20840;-71
2021/09/21 08:43:29;;;;;;;6.00;3.97;;;;;;;14.12;90.58;101927.28;5043205;28;20212;-72
2021/09/21 08:45:56;;;;;;;5.80;3.80;;;;;;;14.12;88.20;101935.16;5045415;28;20203;-72
2021/09/21 08:48:22;;;;;;;5.70;3.50;;;;;;;14.14;87.36;101930.75;5042082;28;20206;-72
2021/09/21 08:50:49;;;;;;;7.43;4.60;;;;;;;14.32;88.36;101934.75;5039277;28;20215;-72
2021/09/21 08:53:16;;;;;;;5.93;3.90;;;;;;;14.41;86.48;101938.94;5047103;28;20202;-72
2021/09/21 08:55:43;;;;;;;6.13;3.60;;;;;;;14.43;84.66;101945.03;5046503;28;20673;-71
2021/09/21 08:58:09;;;;;;;5.50;3.40;;;;;;;14.38;83.82;101937.22;5045989;28;20206;-71
2021/09/21 09:00:37;;;;;;;4.20;3.57;;;;;;;14.42;86.35;101932.78;5042456;28;20211;-71
2021/09/21 09:03:06;;;;;;;4.97;2.60;;;;;;;14.48;85.17;101937.91;5044632;28;21602;-72
2021/09/21 09:05:46;;;;;;;6.10;3.30;;;;;;;14.58;83.11;101941.22;5043177;28;20230;-71
2021/09/21 09:08:13;;;;;;;6.60;2.93;;;;;;;14.56;83.39;101930.75;5044731;28;20203;-72
2021/09/21 09:10:40;;;;;;;5.13;3.53;;;;;;;14.60;82.36;101946.44;5043244;28;20203;-71
2021/09/21 09:13:17;;;;;;;4.37;3.17;;;;;;;14.60;81.72;101934.19;5044244;28;20207;-72
2021/09/21 09:15:52;;;;;;;3.80;3.20;;;;;;;14.58;81.83;101934.22;5039934;28;20318;-71
2021/09/21 09:18:24;;;;;;;4.33;2.70;;;;;;;14.64;80.88;101932.38;5037676;28;20199;-72
2021/09/21 09:20:51;;;;;;;3.37;2.83;;;;;;;14.67;80.60;101933.16;5040491;28;20203;-72
2021/09/21 09:23:18;;;;;;;4.93;2.53;;;;;;;14.73;80.01;101935.63;5039424;28;20572;-72
2021/09/21 09:25:46;;;;;;;6.47;3.67;;;;;;;14.71;81.55;101926.94;5032914;28;20231;-72
2021/09/21 09:28:14;;;;;;;7.90;2.90;;;;;;;14.64;79.27;101927.13;5025125;28;20218;-71
2021/09/21 09:30:42;;;;;;;3.20;2.30;;;;;;;14.64;79.00;101924.50;5031333;28;20871;-72
2021/09/21 09:33:09;;;;;;;3.47;2.47;;;;;;;14.58;77.41;101933.34;5034276;28;20313;-72
2021/09/21 09:35:38;;;;;;;4.13;2.50;;;;;;;14.65;82.22;101926.19;5037084;28;21897;-72
2021/09/21 09:38:06;;;;;;;5.23;2.90;;;;;;;14.49;78.64;101929.16;5032470;28;20203;-72
2021/09/21 09:40:42;;;;;;;3.97;2.70;;;;;;;14.52;80.51;101925.59;5042073;28;20817;-72
2021/09/21 09:43:08;;;;;;;2.67;2.20;;;;;;;14.49;78.61;101934.41;5039249;28;20206;-72
2021/09/21 09:45:38;;;;;;;3.63;2.10;;;;;;;14.50;76.36;101935.25;5039140;28;20224;-72
2021/09/21 09:48:06;;;;;;;3.40;2.40;;;;;;;14.54;79.27;101927.28;5037856;28;22243;-72
2021/09/21 09:50:37;;;;;;;3.73;2.30;;;;;;;14.61;78.94;101919.31;5041420;28;20231;-72
2021/09/21 09:53:07;;;;;;;3.70;2.53;;;;;;;14.77;80.81;101920.69;5037534;28;20211;-71
2021/09/21 09:55:34;;;;;;;4.73;2.50;;;;;;;14.74;77.85;101926.88;5040079;28;20200;-72
2021/09/21 09:58:01;;;;;;;2.37;2.03;;;;;;;14.72;76.81;101927.78;5035919;28;20204;-71
2021/09/21 10:00:28;;;;;;;2.87;2.27;;;;;;;14.71;75.94;101928.72;5037140;28;20584;-72
2021/09/21 10:02:55;;;;;;;2.70;2.00;;;;;;;14.85;78.06;101923.16;5039707;28;20191;-72
2021/09/21 10:05:22;;;;;;;3.03;2.47;;;;;;;14.88;77.34;101929.19;5039626;28;20219;-72
2021/09/21 10:07:49;;;;;;;2.60;1.50;;;;;;;14.90;73.71;101930.00;5037140;28;20576;-71
2021/09/21 10:10:16;;;;;;;1.93;1.67;;;;;;;14.95;73.21;101929.88;5034731;28;20483;-71
2021/09/21 10:12:44;;;;;;;1.90;1.70;;;;;;;15.01;74.73;101918.38;5034099;28;20207;-72
2021/09/21 10:15:12;;;;;;;2.70;1.70;;;;;;;15.13;72.49;101921.56;5032167;28;20210;-72
2021/09/21 10:17:49;;;;;;;1.53;1.33;;;;;;;15.23;72.40;101930.09;5039935;28;20203;-72
2021/09/21 10:20:15;;;;;;;3.77;1.37;;;;;;;15.40;72.59;101931.44;5037865;28;20223;-72
2021/09/21 10:22:42;;;;;;;3.63;1.73;;;;;;;15.50;73.11;101919.78;5040168;28;20707;-72
2021/09/21 10:25:11;;;;;;;2.17;1.50;;;;;;;15.63;71.05;101920.31;5037356;28;20728;-72
2021/09/21 10:27:39;;;;;;;1.70;1.57;;;;;;;15.61;71.26;101917.72;5039498;28;20203;-72
2021/09/21 10:30:08;;;;;;;2.33;1.53;;;;;;;15.61;71.90;101922.97;5039357;28;20227;-72
2021/09/21 10:32:42;;;;;;;2.07;1.40;;;;;;;15.65;70.50;101921.13;5041314;28;20298;-72
2021/09/21 10:35:11;;;;;;;1.30;1.20;;;;;;;15.57;70.14;101917.88;5041105;28;20200;-72
2021/09/21 10:37:37;;;;;;;2.60;1.30;;;;;;;15.65;69.58;101924.59;5038293;28;20200;-72
2021/09/21 10:40:08;;;;;;;2.67;1.80;;;;;;;15.69;71.90;101914.91;5032948;28;20234;-71
2021/09/21 10:42:36;;;;;;;2.70;1.70;;;;;;;15.65;73.51;101911.47;5039459;28;20203;-72
2021/09/21 10:45:06;;;;;;;1.70;1.37;;;;;;;15.68;71.38;101932.41;5041727;28;20249;-71
2021/09/21 10:47:38;;;;;;;4.13;1.90;;;;;;;15.58;71.52;101933.56;5043412;28;20202;-72
2021/09/21 10:50:12;;;;;;;1.80;1.67;;;;;;;15.60;70.42;101930.91;5035819;28;20230;-72
2021/09/21 10:52:39;;;;;;;1.70;1.60;;;;;;;15.64;70.90;101932.56;5040814;28;20214;-72
2021/09/21 10:55:08;;;;;;;3.30;1.57;;;;;;;15.68;69.58;101928.94;5039091;28;20207;-72
2021/09/21 10:58:22;;;;;;;2.20;1.50;;;;;;;15.80;72.24;101920.75;5037377;28;20201;-72
2021/09/21 11:00:50;;;;;;;2.77;1.80;;;;;;;15.82;68.62;101925.97;5025637;28;20207;-72
2021/09/21 11:03:16;;;;;;;3.53;1.53;;;;;;;15.97;69.06;101933.44;5038393;28;20210;-71
2021/09/21 11:05:43;;;;;;;2.03;1.80;;;;;;;16.06;66.69;101937.59;5039417;28;20220;-72
2021/09/21 11:08:13;;;;;;;2.40;1.53;;;;;;;16.10;65.92;101936.59;5037681;28;20260;-72
2021/09/21 11:10:43;;;;;;;1.83;1.63;;;;;;;16.39;67.59;101932.22;5039126;28;20298;-72
2021/09/21 11:13:12;;;;;;;1.50;1.40;;;;;;;16.53;65.44;101929.19;5037567;28;20212;-72
2021/09/21 11:15:40;;;;;;;2.03;1.83;;;;;;;16.74;67.10;101932.94;5043928;28;20199;-71
2021/09/21 11:18:10;;;;;;;2.13;1.80;;;;;;;16.77;64.85;101940.75;5030312;28;20206;-72
2021/09/21 11:20:47;;;;;;;3.50;1.77;;;;;;;16.59;62.99;101942.19;5042521;28;20210;-72
2021/09/21 11:23:14;;;;;;;2.87;1.80;;;;;;;16.59;63.83;101950.09;5040274;28;20690;-72
2021/09/21 11:25:40;;;;;;;2.27;1.60;;;;;;;16.47;62.25;101953.94;5043760;28;20637;-72
2021/09/21 11:28:07;;;;;;;2.33;1.83;;;;;;;16.53;63.03;101951.09;5031315;28;20861;-72
2021/09/21 11:30:33;;;;;;;2.77;1.70;;;;;;;16.55;61.74;101954.56;5035942;28;20223;-71
2021/09/21 11:33:12;;;;;;;2.57;1.87;;;;;;;16.49;63.17;101949.47;5036372;28;20216;-72
2021/09/21 11:35:39;;;;;;;4.53;1.80;;;;;;;16.17;62.20;101960.97;5042060;28;20207;-72
2021/09/21 11:38:05;;;;;;;2.10;1.60;;;;;;;16.19;63.86;101948.63;5040665;28;21109;-71